sensor_id;sensor_type;location;lat;lon;timestamp;temperature;humidity
5508;DHT22;2776;51.046;6.772;2022-09-23T00:00:11;10.50;99.90
5508;DHT22;2776;51.046;6.772;2022-09-23T00:02:38;10.50;99.90
5508;DHT22;2776;51.046;6.772;2022-09-23T00:05:07;10.60;99.90
5508;DHT22;2776;51.046;6.772;2022-09-23T00:07:34;10.60;99.90
5508;DHT22;2776;51.046;6.772;2022-09-23T00:10:04;10.60;99.90
5508;DHT22;2776;51.046;6.772;2022-09-23T00:12:31;10.60;99.90
5508;DHT22;2776;51.046;6.772;2022-09-23T00:14:57;10.60;99.90
5508;DHT22;2776;51.046;6.772;2022-09-23T00:17:24;10.50;99.90
5508;DHT22;2776;51.046;6.772;2022-09-23T00:19:51;10.40;99.90
5508;DHT22;2776;51.046;6.772;2022-09-23T00:22:20;10.30;99.90
5508;DHT22;2776;51.046;6.772;2022-09-23T00:24:47;10.40;99.90
5508;DHT22;2776;51.046;6.772;2022-09-23T00:27:14;10.40;99.90
5508;DHT22;2776;51.046;6.772;2022-09-23T00:29:41;10.40;99.90
5508;DHT22;2776;51.046;6.772;2022-09-23T00:32:08;10.40;99.90
5508;DHT22;2776;51.046;6.772;2022-09-23T00:34:34;10.50;99.90
5508;DHT22;2776;51.046;6.772;2022-09-23T00:37:01;10.50;99.90
5508;DHT22;2776;51.046;6.772;2022-09-23T00:39:29;10.50;99.90
5508;DHT22;2776;51.046;6.772;2022-09-23T00:41:56;10.50;99.90
5508;DHT22;2776;51.046;6.772;2022-09-23T00:44:45;10.50;99.90
5508;DHT22;2776;51.046;6.772;2022-09-23T00:47:16;10.50;99.90
5508;DHT22;2776;51.046;6.772;2022-09-23T00:49:46;10.50;99.90
5508;DHT22;2776;51.046;6.772;2022-09-23T00:52:17;10.50;99.90
5508;DHT22;2776;51.046;6.772;2022-09-23T00:54:47;10.40;99.90
5508;DHT22;2776;51.046;6.772;2022-09-23T00:57:15;10.40;99.90
5508;DHT22;2776;51.046;6.772;2022-09-23T00:59:44;10.40;99.90
5508;DHT22;2776;51.046;6.772;2022-09-23T01:02:12;10.40;99.90
5508;DHT22;2776;51.046;6.772;2022-09-23T01:04:39;10.40;99.90
5508;DHT22;2776;51.046;6.772;2022-09-23T01:07:06;10.40;99.90
5508;DHT22;2776;51.046;6.772;2022-09-23T01:09:33;10.30;99.90
5508;DHT22;2776;51.046;6.772;2022-09-23T01:12:11;10.20;99.90
5508;DHT22;2776;51.046;6.772;2022-09-23T01:14:47;10.20;99.90
5508;DHT22;2776;51.046;6.772;2022-09-23T01:17:23;10.20;99.90
5508;DHT22;2776;51.046;6.772;2022-09-23T01:20:05;10.10;99.90
5508;DHT22;2776;51.046;6.772;2022-09-23T01:22:38;10.00;99.90
5508;DHT22;2776;51.046;6.772;2022-09-23T01:25:39;10.00;99.90
5508;DHT22;2776;51.046;6.772;2022-09-23T01:28:25;9.90;99.90
5508;DHT22;2776;51.046;6.772;2022-09-23T01:30:59;9.90;99.90
5508;DHT22;2776;51.046;6.772;2022-09-23T01:33:34;9.90;99.90
5508;DHT22;2776;51.046;6.772;2022-09-23T01:36:09;9.90;99.90
5508;DHT22;2776;51.046;6.772;2022-09-23T01:38:44;9.80;99.90
5508;DHT22;2776;51.046;6.772;2022-09-23T01:41:27;9.80;99.90
5508;DHT22;2776;51.046;6.772;2022-09-23T01:44:01;9.80;99.90
5508;DHT22;2776;51.046;6.772;2022-09-23T01:46:33;9.80;99.90
5508;DHT22;2776;51.046;6.772;2022-09-23T01:49:06;9.80;99.90
5508;DHT22;2776;51.046;6.772;2022-09-23T01:51:37;9.70;99.90
5508;DHT22;2776;51.046;6.772;2022-09-23T01:54:09;9.70;99.90
5508;DHT22;2776;51.046;6.772;2022-09-23T01:56:40;9.60;99.90
5508;DHT22;2776;51.046;6.772;2022-09-23T01:59:11;9.70;99.90
5508;DHT22;2776;51.046;6.772;2022-09-23T02:01:47;9.70;99.90
5508;DHT22;2776;51.046;6.772;2022-09-23T02:04:20;9.70;99.90
5508;DHT22;2776;51.046;6.772;2022-09-23T02:06:54;9.80;99.90
5508;DHT22;2776;51.046;6.772;2022-09-23T02:09:24;9.80;99.90
5508;DHT22;2776;51.046;6.772;2022-09-23T02:11:57;9.80;99.90
5508;DHT22;2776;51.046;6.772;2022-09-23T02:14:28;9.70;99.90
5508;DHT22;2776;51.046;6.772;2022-09-23T02:17:02;9.70;99.90
5508;DHT22;2776;51.046;6.772;2022-09-23T02:19:36;9.70;99.90
5508;DHT22;2776;51.046;6.772;2022-09-23T02:22:10;9.70;99.90
5508;DHT22;2776;51.046;6.772;2022-09-23T02:24:39;9.70;99.90
5508;DHT22;2776;51.046;6.772;2022-09-23T02:27:11;9.60;99.90
5508;DHT22;2776;51.046;6.772;2022-09-23T02:29:48;9.60;99.90
5508;DHT22;2776;51.046;6.772;2022-09-23T02:32:20;9.60;99.90
5508;DHT22;2776;51.046;6.772;2022-09-23T02:34:53;9.60;99.90
5508;DHT22;2776;51.046;6.772;2022-09-23T02:37:25;9.60;99.90
5508;DHT22;2776;51.046;6.772;2022-09-23T02:39:59;9.60;99.90
5508;DHT22;2776;51.046;6.772;2022-09-23T02:42:32;9.60;99.90
5508;DHT22;2776;51.046;6.772;2022-09-23T02:45:00;9.50;99.90
5508;DHT22;2776;51.046;6.772;2022-09-23T02:47:30;9.50;99.90
5508;DHT22;2776;51.046;6.772;2022-09-23T02:49:58;9.50;99.90
5508;DHT22;2776;51.046;6.772;2022-09-23T02:52:24;9.50;99.90
5508;DHT22;2776;51.046;6.772;2022-09-23T02:54:52;9.60;99.90
5508;DHT22;2776;51.046;6.772;2022-09-23T02:57:19;9.60;99.90
5508;DHT22;2776;51.046;6.772;2022-09-23T02:59:46;9.60;99.90
5508;DHT22;2776;51.046;6.772;2022-09-23T03:02:42;9.50;99.90
5508;DHT22;2776;51.046;6.772;2022-09-23T03:05:18;9.50;99.90
5508;DHT22;2776;51.046;6.772;2022-09-23T03:07:58;9.50;99.90
5508;DHT22;2776;51.046;6.772;2022-09-23T03:10:34;9.50;99.90
5508;DHT22;2776;51.046;6.772;2022-09-23T03:13:07;9.40;99.90
5508;DHT22;2776;51.046;6.772;2022-09-23T03:15:43;9.50;99.90
5508;DHT22;2776;51.046;6.772;2022-09-23T03:18:17;9.40;99.90
5508;DHT22;2776;51.046;6.772;2022-09-23T03:20:48;9.50;99.90
5508;DHT22;2776;51.046;6.772;2022-09-23T03:23:19;9.60;99.90
5508;DHT22;2776;51.046;6.772;2022-09-23T03:25:48;9.60;99.90
5508;DHT22;2776;51.046;6.772;2022-09-23T03:28:19;9.60;99.90
5508;DHT22;2776;51.046;6.772;2022-09-23T03:30:47;9.60;99.90
5508;DHT22;2776;51.046;6.772;2022-09-23T03:33:17;9.60;99.90
5508;DHT22;2776;51.046;6.772;2022-09-23T03:35:50;9.60;99.90
5508;DHT22;2776;51.046;6.772;2022-09-23T03:38:38;9.50;99.90
5508;DHT22;2776;51.046;6.772;2022-09-23T03:41:08;9.50;99.90
5508;DHT22;2776;51.046;6.772;2022-09-23T03:43:36;9.40;99.90
5508;DHT22;2776;51.046;6.772;2022-09-23T03:46:03;9.40;99.90
5508;DHT22;2776;51.046;6.772;2022-09-23T03:48:32;9.40;99.90
5508;DHT22;2776;51.046;6.772;2022-09-23T03:51:02;9.40;99.90
5508;DHT22;2776;51.046;6.772;2022-09-23T03:53:34;9.40;99.90
5508;DHT22;2776;51.046;6.772;2022-09-23T03:56:01;9.40;99.90
5508;DHT22;2776;51.046;6.772;2022-09-23T03:58:27;9.40;99.90
5508;DHT22;2776;51.046;6.772;2022-09-23T04:00:54;9.30;99.90
5508;DHT22;2776;51.046;6.772;2022-09-23T04:03:23;9.40;99.90
5508;DHT22;2776;51.046;6.772;2022-09-23T04:05:55;9.40;99.90
5508;DHT22;2776;51.046;6.772;2022-09-23T04:08:21;9.40;99.90
5508;DHT22;2776;51.046;6.772;2022-09-23T04:10:48;9.40;99.90
5508;DHT22;2776;51.046;6.772;2022-09-23T04:13:15;9.40;99.90
5508;DHT22;2776;51.046;6.772;2022-09-23T04:15:42;9.40;99.90
5508;DHT22;2776;51.046;6.772;2022-09-23T04:18:09;9.40;99.90
5508;DHT22;2776;51.046;6.772;2022-09-23T04:20:38;9.40;99.90
5508;DHT22;2776;51.046;6.772;2022-09-23T04:23:06;9.30;99.90
5508;DHT22;2776;51.046;6.772;2022-09-23T04:25:32;9.30;99.90
5508;DHT22;2776;51.046;6.772;2022-09-23T04:27:59;9.30;99.90
5508;DHT22;2776;51.046;6.772;2022-09-23T04:30:26;9.30;99.90
5508;DHT22;2776;51.046;6.772;2022-09-23T04:32:53;9.30;99.90
5508;DHT22;2776;51.046;6.772;2022-09-23T04:35:19;9.20;99.90
5508;DHT22;2776;51.046;6.772;2022-09-23T04:37:46;9.20;99.90
5508;DHT22;2776;51.046;6.772;2022-09-23T04:40:14;9.20;99.90
5508;DHT22;2776;51.046;6.772;2022-09-23T04:42:41;9.20;99.90
5508;DHT22;2776;51.046;6.772;2022-09-23T04:45:09;9.20;99.90
5508;DHT22;2776;51.046;6.772;2022-09-23T04:47:35;9.20;99.90
5508;DHT22;2776;51.046;6.772;2022-09-23T04:50:02;9.20;99.90
5508;DHT22;2776;51.046;6.772;2022-09-23T04:52:29;9.20;99.90
5508;DHT22;2776;51.046;6.772;2022-09-23T04:54:56;9.30;99.90
5508;DHT22;2776;51.046;6.772;2022-09-23T04:57:24;9.30;99.90
5508;DHT22;2776;51.046;6.772;2022-09-23T04:59:51;9.30;99.90
5508;DHT22;2776;51.046;6.772;2022-09-23T05:02:19;9.20;99.90
5508;DHT22;2776;51.046;6.772;2022-09-23T05:04:46;9.20;99.90
5508;DHT22;2776;51.046;6.772;2022-09-23T05:07:14;9.20;99.90
5508;DHT22;2776;51.046;6.772;2022-09-23T05:09:43;9.20;99.90
5508;DHT22;2776;51.046;6.772;2022-09-23T05:12:10;9.20;99.90
5508;DHT22;2776;51.046;6.772;2022-09-23T05:14:38;9.10;99.90
5508;DHT22;2776;51.046;6.772;2022-09-23T05:17:05;9.10;99.90
5508;DHT22;2776;51.046;6.772;2022-09-23T05:19:32;9.10;99.90
5508;DHT22;2776;51.046;6.772;2022-09-23T05:21:58;9.10;99.90
5508;DHT22;2776;51.046;6.772;2022-09-23T05:24:26;9.20;99.90
5508;DHT22;2776;51.046;6.772;2022-09-23T05:26:52;9.20;99.90
5508;DHT22;2776;51.046;6.772;2022-09-23T05:29:20;9.20;99.90
5508;DHT22;2776;51.046;6.772;2022-09-23T05:31:48;9.10;99.90
5508;DHT22;2776;51.046;6.772;2022-09-23T05:34:15;9.10;99.90
5508;DHT22;2776;51.046;6.772;2022-09-23T05:36:43;9.00;99.90
5508;DHT22;2776;51.046;6.772;2022-09-23T05:39:09;9.00;99.90
5508;DHT22;2776;51.046;6.772;2022-09-23T05:41:36;9.00;99.90
5508;DHT22;2776;51.046;6.772;2022-09-23T05:44:04;9.00;99.90
5508;DHT22;2776;51.046;6.772;2022-09-23T05:46:31;9.00;99.90
5508;DHT22;2776;51.046;6.772;2022-09-23T05:49:00;9.00;99.90
5508;DHT22;2776;51.046;6.772;2022-09-23T05:51:27;9.10;99.90
5508;DHT22;2776;51.046;6.772;2022-09-23T05:53:55;9.10;99.90
5508;DHT22;2776;51.046;6.772;2022-09-23T05:56:23;9.20;99.90
5508;DHT22;2776;51.046;6.772;2022-09-23T05:58:52;9.30;99.90
5508;DHT22;2776;51.046;6.772;2022-09-23T06:01:20;9.40;99.90
5508;DHT22;2776;51.046;6.772;2022-09-23T06:03:50;9.40;99.90
5508;DHT22;2776;51.046;6.772;2022-09-23T06:06:21;9.50;99.90
5508;DHT22;2776;51.046;6.772;2022-09-23T06:08:50;9.60;99.90
5508;DHT22;2776;51.046;6.772;2022-09-23T06:11:17;9.70;99.90
5508;DHT22;2776;51.046;6.772;2022-09-23T06:13:46;9.70;99.90
5508;DHT22;2776;51.046;6.772;2022-09-23T06:16:14;9.90;99.90
5508;DHT22;2776;51.046;6.772;2022-09-23T06:18:43;10.00;99.90
5508;DHT22;2776;51.046;6.772;2022-09-23T06:21:12;10.10;99.90
5508;DHT22;2776;51.046;6.772;2022-09-23T06:23:41;10.20;99.90
5508;DHT22;2776;51.046;6.772;2022-09-23T06:26:09;10.20;99.90
5508;DHT22;2776;51.046;6.772;2022-09-23T06:28:38;10.40;99.90
5508;DHT22;2776;51.046;6.772;2022-09-23T06:31:06;10.40;99.90
5508;DHT22;2776;51.046;6.772;2022-09-23T06:33:34;10.50;99.90
5508;DHT22;2776;51.046;6.772;2022-09-23T06:36:02;10.50;99.90
5508;DHT22;2776;51.046;6.772;2022-09-23T06:38:30;10.60;99.90
5508;DHT22;2776;51.046;6.772;2022-09-23T06:40:59;10.60;99.90
5508;DHT22;2776;51.046;6.772;2022-09-23T06:43:26;10.70;99.90
5508;DHT22;2776;51.046;6.772;2022-09-23T06:45:53;10.90;99.90
5508;DHT22;2776;51.046;6.772;2022-09-23T06:48:20;10.90;99.90
5508;DHT22;2776;51.046;6.772;2022-09-23T06:50:48;11.10;99.90
5508;DHT22;2776;51.046;6.772;2022-09-23T06:53:16;11.20;99.90
5508;DHT22;2776;51.046;6.772;2022-09-23T06:55:43;11.50;99.90
5508;DHT22;2776;51.046;6.772;2022-09-23T06:58:11;11.60;99.90
5508;DHT22;2776;51.046;6.772;2022-09-23T07:00:38;11.80;99.90
5508;DHT22;2776;51.046;6.772;2022-09-23T07:03:06;12.00;99.90
5508;DHT22;2776;51.046;6.772;2022-09-23T07:05:33;12.10;99.90
5508;DHT22;2776;51.046;6.772;2022-09-23T07:08:00;12.30;99.90
5508;DHT22;2776;51.046;6.772;2022-09-23T07:10:27;12.50;99.90
5508;DHT22;2776;51.046;6.772;2022-09-23T07:12:55;12.50;99.90
5508;DHT22;2776;51.046;6.772;2022-09-23T07:15:23;12.70;99.90
5508;DHT22;2776;51.046;6.772;2022-09-23T07:17:50;12.70;99.90
5508;DHT22;2776;51.046;6.772;2022-09-23T07:20:16;12.70;99.90
5508;DHT22;2776;51.046;6.772;2022-09-23T07:22:48;12.90;99.90
5508;DHT22;2776;51.046;6.772;2022-09-23T07:25:14;13.00;99.90
5508;DHT22;2776;51.046;6.772;2022-09-23T07:27:41;13.10;99.90
5508;DHT22;2776;51.046;6.772;2022-09-23T07:30:09;13.10;99.90
5508;DHT22;2776;51.046;6.772;2022-09-23T07:32:37;13.20;99.90
5508;DHT22;2776;51.046;6.772;2022-09-23T07:35:05;13.30;99.90
5508;DHT22;2776;51.046;6.772;2022-09-23T07:37:31;13.40;99.90
5508;DHT22;2776;51.046;6.772;2022-09-23T07:39:58;13.50;99.90
5508;DHT22;2776;51.046;6.772;2022-09-23T07:42:25;13.40;99.90
5508;DHT22;2776;51.046;6.772;2022-09-23T07:44:52;13.60;99.90
5508;DHT22;2776;51.046;6.772;2022-09-23T07:47:21;13.60;99.90
5508;DHT22;2776;51.046;6.772;2022-09-23T07:49:49;13.70;99.90
5508;DHT22;2776;51.046;6.772;2022-09-23T07:52:18;13.70;99.90
5508;DHT22;2776;51.046;6.772;2022-09-23T07:54:45;13.90;99.90
5508;DHT22;2776;51.046;6.772;2022-09-23T07:57:12;13.90;99.90
5508;DHT22;2776;51.046;6.772;2022-09-23T07:59:39;14.00;99.90
5508;DHT22;2776;51.046;6.772;2022-09-23T08:02:08;14.00;99.90
5508;DHT22;2776;51.046;6.772;2022-09-23T08:04:35;14.00;99.90
5508;DHT22;2776;51.046;6.772;2022-09-23T08:07:04;14.00;99.90
5508;DHT22;2776;51.046;6.772;2022-09-23T08:09:33;14.10;99.90
5508;DHT22;2776;51.046;6.772;2022-09-23T08:12:04;14.20;99.90
5508;DHT22;2776;51.046;6.772;2022-09-23T08:14:31;14.10;99.90
5508;DHT22;2776;51.046;6.772;2022-09-23T08:16:57;14.20;99.90
5508;DHT22;2776;51.046;6.772;2022-09-23T08:19:24;14.30;99.90
5508;DHT22;2776;51.046;6.772;2022-09-23T08:21:51;14.20;99.90
5508;DHT22;2776;51.046;6.772;2022-09-23T08:24:21;14.40;99.90
5508;DHT22;2776;51.046;6.772;2022-09-23T08:26:48;14.50;99.90
5508;DHT22;2776;51.046;6.772;2022-09-23T08:29:18;14.50;99.90
5508;DHT22;2776;51.046;6.772;2022-09-23T08:31:46;14.60;99.90
5508;DHT22;2776;51.046;6.772;2022-09-23T08:34:14;14.60;99.90
5508;DHT22;2776;51.046;6.772;2022-09-23T08:36:41;14.60;99.90
5508;DHT22;2776;51.046;6.772;2022-09-23T08:39:12;14.80;99.90
5508;DHT22;2776;51.046;6.772;2022-09-23T08:41:45;14.90;99.90
5508;DHT22;2776;51.046;6.772;2022-09-23T08:44:16;15.10;99.90
5508;DHT22;2776;51.046;6.772;2022-09-23T08:46:48;15.10;99.90
5508;DHT22;2776;51.046;6.772;2022-09-23T08:49:21;15.20;99.90
5508;DHT22;2776;51.046;6.772;2022-09-23T08:51:51;15.40;99.90
5508;DHT22;2776;51.046;6.772;2022-09-23T08:54:19;15.60;99.90
5508;DHT22;2776;51.046;6.772;2022-09-23T08:56:49;15.70;99.90
5508;DHT22;2776;51.046;6.772;2022-09-23T08:59:20;15.80;99.90
5508;DHT22;2776;51.046;6.772;2022-09-23T09:01:52;15.90;99.90
5508;DHT22;2776;51.046;6.772;2022-09-23T09:04:22;15.90;99.90
5508;DHT22;2776;51.046;6.772;2022-09-23T09:06:52;16.00;99.90
5508;DHT22;2776;51.046;6.772;2022-09-23T09:09:25;16.00;99.90
5508;DHT22;2776;51.046;6.772;2022-09-23T09:11:58;16.10;99.90
5508;DHT22;2776;51.046;6.772;2022-09-23T09:14:34;16.10;99.90
5508;DHT22;2776;51.046;6.772;2022-09-23T09:17:04;16.20;99.90
5508;DHT22;2776;51.046;6.772;2022-09-23T09:19:52;16.20;99.90
5508;DHT22;2776;51.046;6.772;2022-09-23T09:22:21;16.20;99.90
5508;DHT22;2776;51.046;6.772;2022-09-23T09:24:57;16.20;99.90
5508;DHT22;2776;51.046;6.772;2022-09-23T09:27:29;16.30;99.90
5508;DHT22;2776;51.046;6.772;2022-09-23T09:29:59;16.30;99.90
5508;DHT22;2776;51.046;6.772;2022-09-23T09:32:35;16.40;99.90
5508;DHT22;2776;51.046;6.772;2022-09-23T09:35:17;16.40;99.90
5508;DHT22;2776;51.046;6.772;2022-09-23T09:37:46;16.50;99.90
5508;DHT22;2776;51.046;6.772;2022-09-23T09:40:14;16.60;99.90
5508;DHT22;2776;51.046;6.772;2022-09-23T09:42:45;16.70;99.90
5508;DHT22;2776;51.046;6.772;2022-09-23T09:45:17;16.70;99.90
5508;DHT22;2776;51.046;6.772;2022-09-23T09:47:55;16.80;99.90
5508;DHT22;2776;51.046;6.772;2022-09-23T09:50:43;16.80;99.90
5508;DHT22;2776;51.046;6.772;2022-09-23T09:53:19;16.80;99.90
5508;DHT22;2776;51.046;6.772;2022-09-23T09:55:57;16.90;99.90
5508;DHT22;2776;51.046;6.772;2022-09-23T09:58:27;17.00;99.90
5508;DHT22;2776;51.046;6.772;2022-09-23T10:00:58;17.10;99.90
5508;DHT22;2776;51.046;6.772;2022-09-23T10:03:33;17.20;99.90
5508;DHT22;2776;51.046;6.772;2022-09-23T10:06:13;17.30;99.90
5508;DHT22;2776;51.046;6.772;2022-09-23T10:08:47;17.40;99.90
5508;DHT22;2776;51.046;6.772;2022-09-23T10:11:17;17.40;99.90
5508;DHT22;2776;51.046;6.772;2022-09-23T10:14:01;17.50;99.90
5508;DHT22;2776;51.046;6.772;2022-09-23T10:16:30;17.60;99.90
5508;DHT22;2776;51.046;6.772;2022-09-23T10:18:58;17.60;99.90
5508;DHT22;2776;51.046;6.772;2022-09-23T10:21:31;17.60;99.90
5508;DHT22;2776;51.046;6.772;2022-09-23T10:24:01;17.70;99.90
5508;DHT22;2776;51.046;6.772;2022-09-23T10:26:31;17.80;99.90
5508;DHT22;2776;51.046;6.772;2022-09-23T10:29:01;17.90;99.90
5508;DHT22;2776;51.046;6.772;2022-09-23T10:31:29;18.00;99.90
5508;DHT22;2776;51.046;6.772;2022-09-23T10:33:58;18.10;99.90
5508;DHT22;2776;51.046;6.772;2022-09-23T10:36:26;18.20;99.90
5508;DHT22;2776;51.046;6.772;2022-09-23T10:38:56;18.20;99.90
5508;DHT22;2776;51.046;6.772;2022-09-23T10:41:49;18.10;99.90
5508;DHT22;2776;51.046;6.772;2022-09-23T10:44:46;18.20;99.90
5508;DHT22;2776;51.046;6.772;2022-09-23T10:47:42;18.30;99.90
5508;DHT22;2776;51.046;6.772;2022-09-23T10:50:18;18.30;99.90
5508;DHT22;2776;51.046;6.772;2022-09-23T10:53:08;18.30;99.90
5508;DHT22;2776;51.046;6.772;2022-09-23T10:55:51;18.40;99.90
5508;DHT22;2776;51.046;6.772;2022-09-23T10:58:37;18.40;99.90
5508;DHT22;2776;51.046;6.772;2022-09-23T11:01:19;18.40;99.90
5508;DHT22;2776;51.046;6.772;2022-09-23T11:04:13;18.40;99.90
5508;DHT22;2776;51.046;6.772;2022-09-23T11:07:02;18.50;99.90
5508;DHT22;2776;51.046;6.772;2022-09-23T11:09:44;18.50;99.90
5508;DHT22;2776;51.046;6.772;2022-09-23T11:12:23;18.50;99.90
5508;DHT22;2776;51.046;6.772;2022-09-23T11:15:03;18.40;99.90
5508;DHT22;2776;51.046;6.772;2022-09-23T11:17:58;18.50;99.90
5508;DHT22;2776;51.046;6.772;2022-09-23T11:20:37;18.50;99.90
5508;DHT22;2776;51.046;6.772;2022-09-23T11:23:23;18.60;99.90
5508;DHT22;2776;51.046;6.772;2022-09-23T11:25:59;18.50;99.90
5508;DHT22;2776;51.046;6.772;2022-09-23T11:28:47;18.40;99.90
5508;DHT22;2776;51.046;6.772;2022-09-23T11:31:26;18.50;99.90
5508;DHT22;2776;51.046;6.772;2022-09-23T11:34:09;18.50;99.90
5508;DHT22;2776;51.046;6.772;2022-09-23T11:36:42;18.50;99.90
5508;DHT22;2776;51.046;6.772;2022-09-23T11:39:13;18.70;99.90
5508;DHT22;2776;51.046;6.772;2022-09-23T11:41:43;18.70;99.90
5508;DHT22;2776;51.046;6.772;2022-09-23T11:44:16;18.80;99.90
5508;DHT22;2776;51.046;6.772;2022-09-23T11:46:50;18.90;99.90
5508;DHT22;2776;51.046;6.772;2022-09-23T11:49:27;18.90;99.90
5508;DHT22;2776;51.046;6.772;2022-09-23T11:52:02;19.00;99.90
5508;DHT22;2776;51.046;6.772;2022-09-23T11:54:39;19.00;99.90
5508;DHT22;2776;51.046;6.772;2022-09-23T11:57:13;19.10;99.90
5508;DHT22;2776;51.046;6.772;2022-09-23T11:59:44;19.20;99.90
5508;DHT22;2776;51.046;6.772;2022-09-23T12:02:19;19.20;98.00
5508;DHT22;2776;51.046;6.772;2022-09-23T12:04:58;19.30;97.50
5508;DHT22;2776;51.046;6.772;2022-09-23T12:07:32;19.40;96.50
5508;DHT22;2776;51.046;6.772;2022-09-23T12:10:02;19.50;96.60
5508;DHT22;2776;51.046;6.772;2022-09-23T12:12:35;19.60;95.00
5508;DHT22;2776;51.046;6.772;2022-09-23T12:15:10;19.60;92.90
5508;DHT22;2776;51.046;6.772;2022-09-23T12:20:48;20.10;98.10
5508;DHT22;2776;51.046;6.772;2022-09-23T12:23:32;20.30;96.50
5508;DHT22;2776;51.046;6.772;2022-09-23T12:26:03;20.50;96.60
5508;DHT22;2776;51.046;6.772;2022-09-23T12:28:34;20.70;95.60
5508;DHT22;2776;51.046;6.772;2022-09-23T12:31:07;20.70;90.70
5508;DHT22;2776;51.046;6.772;2022-09-23T12:33:36;20.60;91.10
5508;DHT22;2776;51.046;6.772;2022-09-23T12:36:06;20.60;91.20
5508;DHT22;2776;51.046;6.772;2022-09-23T12:38:36;20.90;92.30
5508;DHT22;2776;51.046;6.772;2022-09-23T12:41:19;20.80;86.90
5508;DHT22;2776;51.046;6.772;2022-09-23T12:43:51;21.00;89.80
5508;DHT22;2776;51.046;6.772;2022-09-23T12:46:21;21.10;87.80
5508;DHT22;2776;51.046;6.772;2022-09-23T12:49:01;21.20;86.80
5508;DHT22;2776;51.046;6.772;2022-09-23T12:51:30;21.30;87.60
5508;DHT22;2776;51.046;6.772;2022-09-23T12:54:20;21.40;89.00
5508;DHT22;2776;51.046;6.772;2022-09-23T12:56:59;21.50;89.40
5508;DHT22;2776;51.046;6.772;2022-09-23T12:59:28;21.50;90.40
5508;DHT22;2776;51.046;6.772;2022-09-23T13:01:56;21.60;88.90
5508;DHT22;2776;51.046;6.772;2022-09-23T13:04:29;21.50;88.70
5508;DHT22;2776;51.046;6.772;2022-09-23T13:07:16;21.50;90.90
5508;DHT22;2776;51.046;6.772;2022-09-23T13:09:47;21.50;89.80
5508;DHT22;2776;51.046;6.772;2022-09-23T13:12:18;21.50;87.00
5508;DHT22;2776;51.046;6.772;2022-09-23T13:14:48;21.40;88.90
5508;DHT22;2776;51.046;6.772;2022-09-23T13:17:25;21.30;86.20
5508;DHT22;2776;51.046;6.772;2022-09-23T13:20:00;21.20;86.80
5508;DHT22;2776;51.046;6.772;2022-09-23T13:23:04;21.10;84.70
5508;DHT22;2776;51.046;6.772;2022-09-23T13:25:41;21.10;90.00
5508;DHT22;2776;51.046;6.772;2022-09-23T13:28:26;21.20;90.90
5508;DHT22;2776;51.046;6.772;2022-09-23T13:30:53;21.10;90.40
5508;DHT22;2776;51.046;6.772;2022-09-23T13:33:27;21.10;90.40
5508;DHT22;2776;51.046;6.772;2022-09-23T13:35:58;20.90;90.30
5508;DHT22;2776;51.046;6.772;2022-09-23T13:38:31;20.90;90.30
5508;DHT22;2776;51.046;6.772;2022-09-23T13:41:00;20.90;90.40
5508;DHT22;2776;51.046;6.772;2022-09-23T13:43:31;20.70;92.00
5508;DHT22;2776;51.046;6.772;2022-09-23T13:46:00;20.60;92.60
5508;DHT22;2776;51.046;6.772;2022-09-23T13:48:29;20.50;91.40
5508;DHT22;2776;51.046;6.772;2022-09-23T13:50:58;20.40;93.20
5508;DHT22;2776;51.046;6.772;2022-09-23T13:53:32;20.40;94.20
5508;DHT22;2776;51.046;6.772;2022-09-23T13:56:03;20.20;92.70
5508;DHT22;2776;51.046;6.772;2022-09-23T13:58:32;20.20;93.30
5508;DHT22;2776;51.046;6.772;2022-09-23T14:00:59;20.20;95.00
5508;DHT22;2776;51.046;6.772;2022-09-23T14:03:28;20.30;94.30
5508;DHT22;2776;51.046;6.772;2022-09-23T14:05:58;20.30;94.20
5508;DHT22;2776;51.046;6.772;2022-09-23T14:08:26;20.30;94.00
5508;DHT22;2776;51.046;6.772;2022-09-23T14:10:55;20.30;94.40
5508;DHT22;2776;51.046;6.772;2022-09-23T14:13:24;20.40;96.30
5508;DHT22;2776;51.046;6.772;2022-09-23T14:15:53;20.50;94.90
5508;DHT22;2776;51.046;6.772;2022-09-23T14:18:29;20.50;94.60
5508;DHT22;2776;51.046;6.772;2022-09-23T14:20:57;20.50;94.90
5508;DHT22;2776;51.046;6.772;2022-09-23T14:23:24;20.40;93.10
5508;DHT22;2776;51.046;6.772;2022-09-23T14:25:51;20.40;92.20
5508;DHT22;2776;51.046;6.772;2022-09-23T14:28:21;20.50;93.70
5508;DHT22;2776;51.046;6.772;2022-09-23T14:30:50;20.40;94.00
5508;DHT22;2776;51.046;6.772;2022-09-23T14:33:22;20.50;96.10
5508;DHT22;2776;51.046;6.772;2022-09-23T14:35:51;20.40;92.60
5508;DHT22;2776;51.046;6.772;2022-09-23T14:38:24;20.30;92.30
5508;DHT22;2776;51.046;6.772;2022-09-23T14:41:15;20.30;92.00
5508;DHT22;2776;51.046;6.772;2022-09-23T14:43:50;20.30;91.80
5508;DHT22;2776;51.046;6.772;2022-09-23T14:46:18;20.30;92.40
5508;DHT22;2776;51.046;6.772;2022-09-23T14:48:57;20.20;92.40
5508;DHT22;2776;51.046;6.772;2022-09-23T14:51:30;20.30;93.20
5508;DHT22;2776;51.046;6.772;2022-09-23T14:54:25;20.30;93.50
5508;DHT22;2776;51.046;6.772;2022-09-23T14:56:54;20.30;94.40
5508;DHT22;2776;51.046;6.772;2022-09-23T14:59:27;20.20;93.80
5508;DHT22;2776;51.046;6.772;2022-09-23T15:01:54;20.20;95.00
5508;DHT22;2776;51.046;6.772;2022-09-23T15:04:33;20.20;95.60
5508;DHT22;2776;51.046;6.772;2022-09-23T15:07:03;20.20;95.50
5508;DHT22;2776;51.046;6.772;2022-09-23T15:09:34;20.00;94.70
5508;DHT22;2776;51.046;6.772;2022-09-23T15:12:04;20.00;95.70
5508;DHT22;2776;51.046;6.772;2022-09-23T15:14:36;19.90;96.40
5508;DHT22;2776;51.046;6.772;2022-09-23T15:17:05;19.90;97.40
5508;DHT22;2776;51.046;6.772;2022-09-23T15:19:34;19.80;96.70
5508;DHT22;2776;51.046;6.772;2022-09-23T15:22:01;19.80;98.70
5508;DHT22;2776;51.046;6.772;2022-09-23T15:24:34;19.70;99.00
5508;DHT22;2776;51.046;6.772;2022-09-23T15:27:02;19.70;99.50
5508;DHT22;2776;51.046;6.772;2022-09-23T15:29:36;19.60;99.90
5508;DHT22;2776;51.046;6.772;2022-09-23T15:32:02;19.60;99.40
5508;DHT22;2776;51.046;6.772;2022-09-23T15:34:33;19.50;99.80
5508;DHT22;2776;51.046;6.772;2022-09-23T15:37:00;19.40;99.90
5508;DHT22;2776;51.046;6.772;2022-09-23T15:39:27;19.40;99.90
5508;DHT22;2776;51.046;6.772;2022-09-23T15:41:54;19.40;99.90
5508;DHT22;2776;51.046;6.772;2022-09-23T15:44:21;19.40;99.90
5508;DHT22;2776;51.046;6.772;2022-09-23T15:46:56;19.40;99.90
5508;DHT22;2776;51.046;6.772;2022-09-23T15:49:27;19.30;99.90
5508;DHT22;2776;51.046;6.772;2022-09-23T15:51:57;19.30;99.90
5508;DHT22;2776;51.046;6.772;2022-09-23T15:54:24;19.30;99.60
5508;DHT22;2776;51.046;6.772;2022-09-23T15:56:51;19.20;98.80
5508;DHT22;2776;51.046;6.772;2022-09-23T15:59:18;19.20;99.90
5508;DHT22;2776;51.046;6.772;2022-09-23T16:01:45;19.20;99.90
5508;DHT22;2776;51.046;6.772;2022-09-23T16:04:13;19.20;99.90
5508;DHT22;2776;51.046;6.772;2022-09-23T16:06:41;19.10;99.90
5508;DHT22;2776;51.046;6.772;2022-09-23T16:09:09;19.10;99.90
5508;DHT22;2776;51.046;6.772;2022-09-23T16:11:38;19.10;99.90
5508;DHT22;2776;51.046;6.772;2022-09-23T16:14:10;19.00;99.90
5508;DHT22;2776;51.046;6.772;2022-09-23T16:16:38;19.00;99.90
5508;DHT22;2776;51.046;6.772;2022-09-23T16:19:06;18.90;99.90
5508;DHT22;2776;51.046;6.772;2022-09-23T16:21:34;18.90;99.90
5508;DHT22;2776;51.046;6.772;2022-09-23T16:24:01;18.80;99.90
5508;DHT22;2776;51.046;6.772;2022-09-23T16:26:30;18.80;99.90
5508;DHT22;2776;51.046;6.772;2022-09-23T16:28:59;18.70;99.90
5508;DHT22;2776;51.046;6.772;2022-09-23T16:31:27;18.70;99.90
5508;DHT22;2776;51.046;6.772;2022-09-23T16:33:56;18.60;99.90
5508;DHT22;2776;51.046;6.772;2022-09-23T16:36:28;18.50;99.90